createdAt,value
2018-09-28T00:02:13.515Z,100.00
2018-09-28T00:04:41.808Z,100.00
2018-09-28T00:07:10.111Z,100.00
2018-09-28T00:09:38.416Z,100.00
2018-09-28T00:12:06.708Z,100.00
2018-09-28T00:14:35.007Z,100.00
2018-09-28T00:17:03.319Z,100.00
2018-09-28T00:19:31.603Z,100.00
2018-09-28T00:21:59.904Z,100.00
2018-09-28T00:24:28.212Z,100.00
2018-09-28T00:26:56.507Z,100.00
2018-09-28T00:29:24.807Z,100.00
2018-09-28T00:31:53.115Z,100.00
2018-09-28T00:34:21.407Z,100.00
2018-09-28T00:36:49.723Z,100.00
2018-09-28T00:39:18.018Z,100.00
2018-09-28T00:41:46.307Z,100.00
2018-09-28T00:44:14.644Z,100.00
2018-09-28T00:46:42.943Z,100.00
2018-09-28T00:49:11.234Z,100.00
2018-09-28T00:51:39.539Z,100.00
2018-09-28T00:54:08.085Z,100.00
2018-09-28T00:56:36.374Z,100.00
2018-09-28T00:59:04.663Z,100.00
2018-09-28T01:01:32.975Z,100.00
2018-09-28T01:04:01.314Z,100.00
2018-09-28T01:06:29.609Z,100.00
2018-09-28T01:08:57.927Z,100.00
2018-09-28T01:11:26.232Z,100.00
2018-09-28T01:13:54.528Z,100.00
2018-09-28T01:16:22.828Z,100.00
2018-09-28T01:18:51.136Z,100.00
2018-09-28T01:21:19.431Z,100.00
2018-09-28T01:23:47.734Z,100.00
2018-09-28T01:26:16.035Z,100.00
2018-09-28T01:28:44.327Z,100.00
2018-09-28T01:31:12.644Z,100.00
2018-09-28T01:33:40.940Z,100.00
2018-09-28T01:36:09.230Z,100.00
2018-09-28T01:38:37.543Z,100.00
2018-09-28T01:41:05.839Z,100.00
2018-09-28T01:43:34.131Z,100.00
2018-09-28T01:46:02.444Z,100.00
2018-09-28T01:48:30.747Z,100.00
2018-09-28T01:50:59.047Z,100.00
2018-09-28T01:53:27.339Z,100.00
2018-09-28T01:55:55.651Z,100.00
2018-09-28T01:58:23.947Z,100.00
2018-09-28T02:00:52.243Z,100.00
2018-09-28T02:03:20.553Z,100.00
2018-09-28T02:05:48.842Z,100.00
2018-09-28T02:08:17.139Z,100.00
2018-09-28T02:10:45.447Z,100.00
2018-09-28T02:13:13.747Z,100.00
2018-09-28T02:15:42.094Z,100.00
2018-09-28T02:18:10.350Z,100.00
2018-09-28T02:20:38.643Z,100.00
2018-09-28T02:23:06.980Z,100.00
2018-09-28T02:25:35.276Z,100.00
2018-09-28T02:28:03.810Z,100.00
2018-09-28T02:30:32.119Z,100.00
2018-09-28T02:33:00.417Z,100.00
2018-09-28T02:35:28.717Z,100.00
2018-09-28T02:37:57.019Z,100.00
2018-09-28T02:40:25.311Z,100.00
2018-09-28T02:42:53.605Z,100.00
2018-09-28T02:45:21.919Z,100.00
2018-09-28T02:47:50.215Z,100.00
2018-09-28T02:50:18.513Z,100.00
2018-09-28T02:52:46.815Z,100.00
2018-09-28T02:55:15.112Z,100.00
2018-09-28T02:57:43.428Z,100.00
2018-09-28T03:00:11.730Z,100.00
2018-09-28T03:02:40.035Z,100.00
2018-09-28T03:05:08.344Z,100.00
2018-09-28T03:07:36.639Z,100.00
2018-09-28T03:10:04.955Z,100.00
2018-09-28T03:12:33.243Z,100.00
2018-09-28T03:15:01.541Z,100.00
2018-09-28T03:17:29.848Z,100.00
2018-09-28T03:19:58.136Z,100.00
2018-09-28T03:22:26.432Z,100.00
2018-09-28T03:24:54.736Z,100.00
2018-09-28T03:27:23.032Z,100.00
2018-09-28T03:29:51.324Z,100.00
2018-09-28T03:32:19.623Z,100.00
2018-09-28T03:34:47.924Z,100.00
2018-09-28T03:37:16.216Z,100.00
2018-09-28T03:39:44.519Z,100.00
2018-09-28T03:42:12.819Z,100.00
2018-09-28T03:44:41.110Z,100.00
2018-09-28T03:47:09.423Z,100.00
2018-09-28T03:49:37.722Z,100.00
2018-09-28T03:52:06.019Z,100.00
2018-09-28T03:54:34.327Z,100.00
2018-09-28T03:57:02.626Z,100.00
2018-09-28T03:59:30.919Z,100.00
2018-09-28T04:01:59.228Z,100.00
2018-09-28T04:04:27.519Z,100.00
2018-09-28T04:06:55.816Z,100.00
2018-09-28T04:09:24.120Z,100.00
2018-09-28T04:11:52.421Z,100.00
2018-09-28T04:14:20.725Z,100.00
2018-09-28T04:16:49.012Z,100.00
2018-09-28T04:19:17.326Z,100.00
2018-09-28T04:21:45.744Z,100.00
2018-09-28T04:24:13.991Z,100.00
2018-09-28T04:26:42.314Z,100.00
2018-09-28T04:29:10.608Z,100.00
2018-09-28T04:31:38.912Z,100.00
2018-09-28T04:34:07.207Z,100.00
2018-09-28T04:36:35.515Z,100.00
2018-09-28T04:39:03.815Z,100.00
2018-09-28T04:41:32.103Z,100.00
2018-09-28T04:44:00.411Z,100.00
2018-09-28T04:46:28.707Z,100.00
2018-09-28T04:48:57.023Z,100.00
2018-09-28T04:51:25.321Z,100.00
2018-09-28T04:53:53.639Z,100.00
2018-09-28T04:56:21.927Z,100.00
2018-09-28T04:58:50.221Z,100.00
2018-09-28T05:01:18.523Z,100.00
2018-09-28T05:03:46.814Z,100.00
2018-09-28T05:06:15.114Z,100.00
2018-09-28T05:08:43.412Z,100.00
2018-09-28T05:11:11.719Z,100.00
2018-09-28T05:13:40.011Z,100.00
2018-09-28T05:16:08.304Z,100.00
2018-09-28T05:18:36.613Z,100.00
2018-09-28T05:21:04.918Z,100.00
2018-09-28T05:23:33.219Z,100.00
2018-09-28T05:26:01.511Z,100.00
2018-09-28T05:28:29.834Z,100.00
2018-09-28T05:30:58.166Z,100.00
2018-09-28T05:33:26.431Z,100.00
2018-09-28T05:35:54.724Z,100.00
2018-09-28T05:38:23.023Z,100.00
2018-09-28T05:40:51.329Z,100.00
2018-09-28T05:43:19.618Z,100.00
2018-09-28T05:45:47.935Z,100.00
2018-09-28T05:48:16.231Z,100.00
2018-09-28T05:50:44.533Z,100.00
2018-09-28T05:53:12.839Z,100.00
2018-09-28T05:55:41.135Z,100.00
2018-09-28T05:58:09.447Z,100.00
2018-09-28T06:00:43.339Z,100.00
2018-09-28T06:03:11.649Z,100.00
2018-09-28T06:05:39.991Z,100.00
2018-09-28T06:08:08.231Z,100.00
2018-09-28T06:10:36.535Z,100.00
2018-09-28T06:13:04.831Z,100.00
2018-09-28T06:15:33.135Z,100.00
2018-09-28T06:18:01.528Z,100.00
2018-09-28T06:20:29.731Z,100.00
2018-09-28T06:22:58.019Z,100.00
2018-09-28T06:25:26.331Z,100.00
2018-09-28T06:27:54.632Z,100.00
2018-09-28T06:30:22.940Z,100.00
2018-09-28T06:32:51.285Z,100.00
2018-09-28T06:35:19.582Z,100.00
2018-09-28T06:37:47.907Z,100.00
2018-09-28T06:40:16.232Z,100.00
2018-09-28T06:42:44.532Z,100.00
2018-09-28T06:45:12.826Z,100.00
2018-09-28T06:47:41.152Z,100.00
2018-09-28T06:50:09.423Z,100.00
2018-09-28T06:52:37.743Z,100.00
2018-09-28T06:55:06.035Z,100.00
2018-09-28T06:57:34.353Z,100.00
2018-09-28T07:00:02.691Z,100.00
2018-09-28T07:02:31.022Z,100.00
2018-09-28T07:04:59.636Z,100.00
2018-09-28T07:07:27.922Z,100.00
2018-09-28T07:09:56.231Z,100.00
2018-09-28T07:12:24.524Z,100.00
2018-09-28T07:14:52.853Z,100.00
2018-09-28T07:17:21.131Z,100.00
2018-09-28T07:19:49.423Z,100.00
2018-09-28T07:22:17.731Z,100.00
2018-09-28T07:24:46.144Z,100.00
2018-09-28T07:27:14.406Z,100.00
2018-09-28T07:29:42.759Z,100.00
2018-09-28T07:32:11.047Z,100.00
2018-09-28T07:34:39.439Z,100.00
2018-09-28T07:37:07.902Z,100.00
2018-09-28T07:39:36.039Z,100.00
2018-09-28T07:42:04.381Z,100.00
2018-09-28T07:44:32.655Z,98.87
2018-09-28T07:47:00.963Z,98.77
2018-09-28T07:49:29.262Z,97.68
2018-09-28T07:51:57.569Z,97.40
2018-09-28T07:54:25.863Z,98.09
2018-09-28T07:56:54.157Z,99.27
2018-09-28T07:59:22.447Z,99.04
2018-09-28T08:01:50.743Z,98.35
2018-09-28T08:04:19.055Z,96.32
2018-09-28T08:06:47.372Z,97.86
2018-09-28T08:09:15.665Z,95.85
2018-09-28T08:11:43.959Z,96.84
2018-09-28T08:14:12.263Z,92.59
2018-09-28T08:16:40.555Z,95.16
2018-09-28T08:19:08.859Z,97.29
2018-09-28T08:21:37.147Z,94.01
2018-09-28T08:24:05.442Z,91.67
2018-09-28T08:26:33.734Z,91.47
2018-09-28T08:29:02.028Z,91.36
2018-09-28T08:31:30.331Z,92.36
2018-09-28T08:33:58.614Z,89.17
2018-09-28T08:36:27.017Z,88.78
2018-09-28T08:38:55.207Z,87.57
2018-09-28T08:41:23.517Z,88.14
2018-09-28T08:43:51.795Z,90.86
2018-09-28T08:46:20.090Z,86.66
2018-09-28T08:48:48.395Z,84.76
2018-09-28T08:51:16.691Z,86.28
2018-09-28T08:53:44.995Z,84.50
2018-09-28T08:56:13.323Z,83.70
2018-09-28T08:58:41.599Z,87.14
2018-09-28T09:01:09.908Z,87.45
2018-09-28T09:03:38.206Z,82.86
2018-09-28T09:06:06.503Z,83.69
2018-09-28T09:08:34.787Z,82.41
2018-09-28T09:11:03.095Z,82.15
2018-09-28T09:13:31.387Z,80.05
2018-09-28T09:15:59.679Z,80.92
2018-09-28T09:18:27.995Z,82.20
2018-09-28T09:20:56.295Z,79.32
2018-09-28T09:23:24.583Z,78.09
2018-09-28T09:25:52.872Z,79.37
2018-09-28T09:28:21.177Z,78.23
2018-09-28T09:30:49.459Z,76.16
2018-09-28T09:33:17.755Z,76.88
2018-09-28T09:35:46.049Z,79.75
2018-09-28T09:38:14.346Z,75.56
2018-09-28T09:40:42.642Z,78.06
2018-09-28T09:43:10.936Z,73.43
2018-09-28T09:45:39.223Z,75.55
2018-09-28T09:48:07.519Z,72.77
2018-09-28T09:50:35.811Z,71.15
2018-09-28T09:53:04.114Z,72.49
2018-09-28T09:55:32.399Z,69.90
2018-09-28T09:58:00.730Z,69.11
2018-09-28T10:00:28.995Z,69.67
2018-09-28T10:03:00.083Z,68.28
2018-09-28T10:05:28.371Z,69.74
2018-09-28T10:07:56.659Z,69.39
2018-09-28T10:10:24.955Z,68.04
2018-09-28T10:12:53.261Z,69.52
2018-09-28T10:15:21.552Z,67.71
2018-09-28T10:17:49.891Z,67.31
2018-09-28T10:20:18.229Z,67.50
2018-09-28T10:22:46.506Z,69.17
2018-09-28T10:25:14.800Z,67.72
2018-09-28T10:27:43.193Z,65.33
2018-09-28T10:30:11.433Z,65.05
2018-09-28T10:32:39.741Z,64.21
2018-09-28T10:35:08.063Z,63.97
2018-09-28T10:37:36.350Z,62.84
2018-09-28T10:40:04.655Z,63.83
2018-09-28T10:42:32.951Z,61.41
2018-09-28T10:45:01.252Z,60.65
2018-09-28T10:47:29.599Z,61.42
2018-09-28T10:49:57.915Z,62.14
2018-09-28T10:52:26.423Z,59.86
2018-09-28T10:54:54.503Z,58.20
2018-09-28T10:57:22.906Z,59.82
2018-09-28T10:59:51.131Z,62.41
2018-09-28T11:02:19.423Z,59.46
2018-09-28T11:04:47.789Z,58.16
2018-09-28T11:07:16.025Z,57.77
2018-09-28T11:09:44.406Z,59.17
2018-09-28T11:12:12.619Z,60.72
2018-09-28T11:14:40.916Z,58.57
2018-09-28T11:17:09.204Z,55.57
2018-09-28T11:19:37.494Z,55.70
2018-09-28T11:22:05.795Z,55.71
2018-09-28T11:24:34.099Z,54.91
2018-09-28T11:27:02.391Z,54.07
2018-09-28T11:29:30.691Z,55.60
2018-09-28T11:31:58.982Z,53.67
2018-09-28T11:34:27.283Z,53.52
2018-09-28T11:36:56.391Z,52.44
2018-09-28T11:39:24.772Z,54.31
2018-09-28T11:41:52.985Z,53.33
2018-09-28T11:44:21.271Z,54.62
2018-09-28T11:46:49.563Z,55.11
2018-09-28T11:49:17.917Z,55.46
2018-09-28T11:51:46.214Z,52.68
2018-09-28T11:54:14.444Z,49.15
2018-09-28T11:56:42.747Z,50.96
2018-09-28T11:59:11.038Z,51.58
2018-09-28T12:01:39.328Z,51.90
2018-09-28T12:04:07.617Z,52.72
2018-09-28T12:06:36.026Z,54.10
2018-09-28T12:09:04.215Z,51.36
2018-09-28T12:11:32.504Z,51.93
2018-09-28T12:14:00.811Z,50.84
2018-09-28T12:16:29.119Z,50.13
2018-09-28T12:18:57.429Z,53.22
2018-09-28T12:21:25.747Z,49.62
2018-09-28T12:23:53.998Z,49.90
2018-09-28T12:26:22.299Z,50.07
2018-09-28T12:28:50.600Z,52.96
2018-09-28T12:31:18.906Z,51.28
2018-09-28T12:33:47.284Z,50.05
2018-09-28T12:36:15.510Z,51.40
2018-09-28T12:38:43.809Z,50.42
2018-09-28T12:41:12.092Z,50.67
2018-09-28T12:43:40.390Z,51.16
2018-09-28T12:46:08.684Z,49.50
2018-09-28T12:48:37.035Z,46.80
2018-09-28T12:51:05.275Z,49.21
2018-09-28T12:53:33.621Z,50.89
2018-09-28T12:56:01.887Z,51.98
2018-09-28T12:58:30.171Z,53.48
2018-09-28T13:00:58.628Z,54.85
2018-09-28T13:03:26.820Z,56.96
2018-09-28T13:05:55.086Z,55.80
2018-09-28T13:08:23.420Z,58.08
2018-09-28T13:10:51.695Z,56.79
2018-09-28T13:13:19.999Z,56.79
2018-09-28T13:15:48.312Z,57.02
2018-09-28T13:18:16.661Z,56.14
2018-09-28T13:20:44.952Z,57.43
2018-09-28T13:23:13.208Z,56.71
2018-09-28T13:25:41.509Z,53.99
2018-09-28T13:28:09.803Z,53.48
2018-09-28T13:30:38.151Z,54.78
2018-09-28T13:33:06.405Z,54.57
2018-09-28T13:35:34.717Z,54.81
2018-09-28T13:38:03.200Z,53.93
2018-09-28T13:40:31.463Z,51.67
2018-09-28T13:42:59.760Z,51.40
2018-09-28T13:45:28.094Z,51.29
2018-09-28T13:47:56.567Z,50.11
2018-09-28T13:50:24.903Z,50.06
2018-09-28T13:52:53.179Z,50.69
2018-09-28T13:55:21.451Z,49.17
2018-09-28T13:57:49.775Z,49.81
2018-09-28T14:00:18.387Z,49.45
2018-09-28T14:02:46.758Z,48.85
2018-09-28T14:05:14.982Z,49.63
2018-09-28T14:07:43.275Z,49.80
2018-09-28T14:10:11.620Z,51.83
2018-09-28T14:12:39.906Z,50.17
2018-09-28T14:15:08.183Z,50.98
2018-09-28T14:17:39.593Z,51.57
2018-09-28T14:20:07.884Z,51.17
2018-09-28T14:22:36.215Z,51.10
2018-09-28T14:25:04.487Z,50.53
2018-09-28T14:27:32.792Z,50.23
2018-09-28T14:30:01.101Z,50.06
2018-09-28T14:32:29.425Z,49.03
2018-09-28T14:34:57.707Z,48.42
2018-09-28T14:37:26.933Z,49.17
2018-09-28T14:39:55.262Z,49.55
2018-09-28T14:42:23.661Z,49.68
2018-09-28T14:44:51.873Z,48.34
2018-09-28T14:47:20.156Z,50.02
2018-09-28T14:49:48.466Z,46.77
2018-09-28T14:52:16.795Z,48.31
2018-09-28T14:54:45.134Z,47.13
2018-09-28T14:57:13.418Z,46.74
2018-09-28T14:59:41.711Z,46.84
2018-09-28T15:02:10.050Z,47.40
2018-09-28T15:04:38.352Z,48.29
2018-09-28T15:07:06.627Z,48.63
2018-09-28T15:09:34.936Z,51.23
2018-09-28T15:12:03.218Z,51.68
2018-09-28T15:14:31.556Z,51.87
2018-09-28T15:16:59.815Z,51.10
2018-09-28T15:19:28.134Z,52.49
2018-09-28T15:21:56.444Z,51.13
2018-09-28T15:24:24.739Z,52.29
2018-09-28T15:26:53.197Z,53.41
2018-09-28T15:29:21.460Z,53.93
2018-09-28T15:31:49.779Z,53.17
2018-09-28T15:34:18.063Z,54.41
2018-09-28T15:36:46.376Z,55.29
2018-09-28T15:39:14.672Z,55.34
2018-09-28T15:41:42.958Z,56.92
2018-09-28T15:44:11.261Z,57.44
2018-09-28T15:46:39.551Z,55.94
2018-09-28T15:49:07.903Z,55.83
2018-09-28T15:51:36.160Z,56.52
2018-09-28T15:54:04.443Z,57.38
2018-09-28T15:56:32.760Z,57.78
2018-09-28T15:59:01.043Z,57.71
2018-09-28T16:01:29.414Z,57.79
2018-09-28T16:03:59.420Z,57.91
2018-09-28T16:06:28.666Z,57.38
2018-09-28T16:08:56.975Z,58.79
2018-09-28T16:11:25.267Z,58.60
2018-09-28T16:13:53.571Z,58.84
2018-09-28T16:16:21.859Z,58.63
2018-09-28T16:18:50.195Z,59.66
2018-09-28T16:21:18.511Z,60.22
2018-09-28T16:23:46.770Z,59.31
2018-09-28T16:26:15.071Z,59.80
2018-09-28T16:28:43.376Z,60.01
2018-09-28T16:31:12.647Z,61.06
2018-09-28T16:33:40.949Z,60.97
2018-09-28T16:36:09.511Z,61.79
2018-09-28T16:38:37.918Z,62.00
2018-09-28T16:41:06.294Z,61.68
2018-09-28T16:43:34.574Z,64.23
2018-09-28T16:46:04.244Z,62.81
2018-09-28T16:48:32.543Z,61.51
2018-09-28T16:51:00.847Z,62.14
2018-09-28T16:53:29.143Z,61.11
2018-09-28T16:55:57.461Z,60.86
2018-09-28T16:58:25.747Z,60.94
2018-09-28T17:00:54.347Z,60.79
2018-09-28T17:03:22.663Z,59.22
2018-09-28T17:05:50.939Z,59.07
2018-09-28T17:08:19.253Z,59.82
2018-09-28T17:10:47.539Z,58.21
2018-09-28T17:13:16.448Z,58.77
2018-09-28T17:15:44.740Z,59.42
2018-09-28T17:18:13.039Z,59.22
2018-09-28T17:20:41.353Z,57.87
2018-09-28T17:23:09.643Z,57.30
2018-09-28T17:25:37.938Z,57.54
2018-09-28T17:28:06.308Z,56.60
2018-09-28T17:30:34.573Z,56.56
2018-09-28T17:33:02.882Z,57.55
2018-09-28T17:35:31.183Z,58.06
2018-09-28T17:37:59.479Z,58.66
2018-09-28T17:40:27.856Z,58.61
2018-09-28T17:42:56.156Z,59.90
2018-09-28T17:45:24.448Z,61.11
2018-09-28T17:47:52.746Z,61.25
2018-09-28T17:50:21.040Z,62.28
2018-09-28T17:52:50.229Z,62.97
2018-09-28T17:55:18.511Z,63.30
2018-09-28T17:57:46.848Z,63.89
2018-09-28T18:00:15.132Z,64.64
2018-09-28T18:02:43.435Z,65.34
2018-09-28T18:05:11.752Z,65.98
2018-09-28T18:07:40.042Z,66.88
2018-09-28T18:10:08.355Z,68.63
2018-09-28T18:12:36.694Z,70.13
2018-09-28T18:15:05.029Z,70.02
2018-09-28T18:17:33.323Z,71.10
2018-09-28T18:20:01.650Z,72.22
2018-09-28T18:22:29.995Z,72.82
2018-09-28T18:24:58.212Z,73.56
2018-09-28T18:27:26.714Z,74.83
2018-09-28T18:29:55.001Z,75.66
2018-09-28T18:32:23.304Z,76.87
2018-09-28T18:34:51.601Z,78.26
2018-09-28T18:37:19.938Z,78.42
2018-09-28T18:39:48.187Z,80.39
2018-09-28T18:42:25.250Z,82.63
2018-09-28T18:44:53.595Z,83.57
2018-09-28T18:47:21.870Z,84.82
2018-09-28T18:49:50.232Z,87.03
2018-09-28T18:52:18.523Z,87.16
2018-09-28T18:54:46.817Z,89.01
2018-09-28T18:57:15.113Z,90.73
2018-09-28T18:59:43.428Z,90.84
2018-09-28T19:02:11.731Z,92.03
2018-09-28T19:04:40.028Z,91.26
2018-09-28T19:07:08.397Z,93.19
2018-09-28T19:09:36.667Z,93.63
2018-09-28T19:12:04.974Z,94.70
2018-09-28T19:14:33.321Z,93.77
2018-09-28T19:17:01.605Z,94.40
2018-09-28T19:19:29.969Z,96.21
2018-09-28T19:21:58.251Z,96.76
2018-09-28T19:24:26.819Z,96.86
2018-09-28T19:26:55.338Z,97.04
2018-09-28T19:29:23.631Z,98.19
2018-09-28T19:31:51.919Z,99.21
2018-09-28T19:34:20.227Z,100.00
2018-09-28T19:36:48.542Z,100.00
2018-09-28T19:39:16.847Z,100.00
2018-09-28T19:41:45.233Z,100.00
2018-09-28T19:44:13.499Z,100.00
2018-09-28T19:46:41.812Z,100.00
2018-09-28T19:49:10.127Z,100.00
2018-09-28T19:51:38.440Z,100.00
2018-09-28T19:54:06.791Z,100.00
2018-09-28T19:56:35.091Z,100.00
2018-09-28T19:59:05.905Z,100.00
2018-09-28T20:01:34.179Z,100.00
2018-09-28T20:04:02.893Z,100.00
2018-09-28T20:06:31.272Z,100.00
2018-09-28T20:08:59.572Z,100.00
2018-09-28T20:11:28.212Z,100.00
2018-09-28T20:13:56.522Z,100.00
2018-09-28T20:16:25.314Z,100.00
2018-09-28T20:18:53.636Z,100.00
2018-09-28T20:21:21.970Z,100.00
2018-09-28T20:23:50.276Z,100.00
2018-09-28T20:26:18.771Z,100.00
2018-09-28T20:28:47.147Z,100.00
2018-09-28T20:31:16.498Z,100.00
2018-09-28T20:33:44.837Z,100.00
2018-09-28T20:36:13.132Z,100.00
2018-09-28T20:38:41.428Z,100.00
2018-09-28T20:41:11.563Z,100.00
2018-09-28T20:43:39.867Z,100.00
2018-09-28T20:46:08.215Z,100.00
2018-09-28T20:48:36.523Z,100.00
2018-09-28T20:51:04.832Z,100.00
2018-09-28T20:53:33.203Z,100.00
2018-09-28T20:56:01.502Z,100.00
2018-09-28T20:58:30.011Z,100.00
2018-09-28T21:00:58.362Z,100.00
2018-09-28T21:03:26.786Z,100.00
2018-09-28T21:05:55.066Z,100.00
2018-09-28T21:08:23.372Z,100.00
2018-09-28T21:10:51.709Z,100.00
2018-09-28T21:13:20.024Z,100.00
2018-09-28T21:15:48.298Z,100.00
2018-09-28T21:18:16.611Z,100.00
2018-09-28T21:20:44.912Z,100.00
2018-09-28T21:23:13.222Z,100.00
2018-09-28T21:25:41.515Z,100.00
2018-09-28T21:28:09.819Z,100.00
2018-09-28T21:30:38.559Z,100.00
2018-09-28T21:33:06.864Z,100.00
2018-09-28T21:35:35.253Z,100.00
2018-09-28T21:38:03.483Z,100.00
2018-09-28T21:40:31.792Z,100.00
2018-09-28T21:43:00.090Z,100.00
2018-09-28T21:45:28.400Z,100.00
2018-09-28T21:47:56.715Z,100.00
2018-09-28T21:50:25.027Z,100.00
2018-09-28T21:52:53.328Z,100.00
2018-09-28T21:55:21.639Z,100.00
2018-09-28T21:57:49.932Z,100.00
2018-09-28T22:00:18.244Z,100.00
2018-09-28T22:02:46.535Z,100.00
2018-09-28T22:05:14.839Z,100.00
2018-09-28T22:07:43.138Z,100.00
2018-09-28T22:10:11.464Z,100.00
2018-09-28T22:12:39.936Z,100.00
2018-09-28T22:15:08.244Z,100.00
2018-09-28T22:17:36.553Z,100.00
2018-09-28T22:20:04.893Z,100.00
2018-09-28T22:22:33.197Z,100.00
2018-09-28T22:25:01.491Z,100.00
2018-09-28T22:27:29.803Z,100.00
2018-09-28T22:29:58.142Z,100.00
2018-09-28T22:32:26.455Z,100.00
2018-09-28T22:34:54.770Z,100.00
2018-09-28T22:37:23.091Z,98.49
2018-09-28T22:39:51.411Z,100.00
2018-09-28T22:42:19.699Z,98.39
2018-09-28T22:44:47.989Z,100.00
2018-09-28T22:54:13.653Z,95.21
2018-09-28T22:56:43.993Z,94.68
2018-09-28T22:59:12.314Z,92.29
2018-09-28T23:01:41.544Z,90.80
2018-09-28T23:04:13.220Z,88.23
2018-09-28T23:06:43.531Z,88.95
2018-09-28T23:09:13.888Z,89.31
2018-09-28T23:11:42.204Z,87.63
2018-09-28T23:14:10.515Z,87.45
2018-09-28T23:16:39.840Z,87.80
2018-09-28T23:19:08.146Z,90.52
2018-09-28T23:21:37.430Z,85.66
2018-09-28T23:24:05.693Z,85.68
2018-09-28T23:26:36.047Z,81.90
2018-09-28T23:29:04.428Z,84.95
2018-09-28T23:31:32.745Z,85.37
2018-09-28T23:34:01.092Z,79.10
2018-09-28T23:36:29.406Z,80.02
2018-09-28T23:38:57.727Z,82.95
2018-09-28T23:41:26.064Z,78.90
2018-09-28T23:43:54.412Z,79.92
2018-09-28T23:46:23.756Z,76.57
2018-09-28T23:48:52.111Z,78.65
2018-09-28T23:51:20.412Z,77.82
2018-09-28T23:53:48.710Z,80.51
2018-09-28T23:56:17.008Z,76.85
2018-09-28T23:58:45.300Z,74.12
